sensor_id;sensor_type;location;lat;lon;timestamp;pressure;altitude;pressure_sealevel;temperature
70415;BMP280;57837;52.064;113.478;2022-10-17T00:02:58;94932.88;;;-4.12
70415;BMP280;57837;52.064;113.478;2022-10-17T00:06:10;94936.09;;;-3.85
70415;BMP280;57837;52.064;113.478;2022-10-17T00:09:14;94937.50;;;-3.76
70415;BMP280;57837;52.064;113.478;2022-10-17T00:12:18;94936.59;;;-3.62
70415;BMP280;57837;52.064;113.478;2022-10-17T00:15:21;94937.41;;;-3.50
70415;BMP280;57837;52.064;113.478;2022-10-17T00:18:24;94942.66;;;-3.25
70415;BMP280;57837;52.064;113.478;2022-10-17T00:21:28;94944.94;;;-2.41
70415;BMP280;57837;52.064;113.478;2022-10-17T00:24:32;94942.47;;;-1.47
70415;BMP280;57837;52.064;113.478;2022-10-17T00:27:37;94942.59;;;-0.79
70415;BMP280;57837;52.064;113.478;2022-10-17T00:30:42;94949.22;;;-0.34
70415;BMP280;57837;52.064;113.478;2022-10-17T00:33:45;94958.81;;;0.32
70415;BMP280;57837;52.064;113.478;2022-10-17T00:36:50;94955.22;;;1.03
70415;BMP280;57837;52.064;113.478;2022-10-17T00:39:54;94947.63;;;1.45
70415;BMP280;57837;52.064;113.478;2022-10-17T00:42:57;94949.31;;;1.57
70415;BMP280;57837;52.064;113.478;2022-10-17T00:46:01;94946.88;;;1.45
70415;BMP280;57837;52.064;113.478;2022-10-17T00:49:07;94948.69;;;1.44
70415;BMP280;57837;52.064;113.478;2022-10-17T00:52:16;94953.59;;;1.53
70415;BMP280;57837;52.064;113.478;2022-10-17T00:55:26;94953.22;;;1.73
70415;BMP280;57837;52.064;113.478;2022-10-17T00:58:31;94953.75;;;2.05
70415;BMP280;57837;52.064;113.478;2022-10-17T01:01:36;94952.94;;;2.24
70415;BMP280;57837;52.064;113.478;2022-10-17T01:04:42;94953.34;;;2.53
70415;BMP280;57837;52.064;113.478;2022-10-17T01:07:48;94947.56;;;2.86
70415;BMP280;57837;52.064;113.478;2022-10-17T01:14:24;94943.66;;;3.66
70415;BMP280;57837;52.064;113.478;2022-10-17T01:31:47;94943.53;;;3.92
70415;BMP280;57837;52.064;113.478;2022-10-17T01:35:24;94939.53;;;3.95
70415;BMP280;57837;52.064;113.478;2022-10-17T01:38:35;94938.69;;;4.38
70415;BMP280;57837;52.064;113.478;2022-10-17T01:41:48;94926.66;;;4.46
70415;BMP280;57837;52.064;113.478;2022-10-17T01:44:55;94923.53;;;4.08
70415;BMP280;57837;52.064;113.478;2022-10-17T01:48:04;94929.28;;;3.98
70415;BMP280;57837;52.064;113.478;2022-10-17T01:52:02;94925.63;;;3.99
70415;BMP280;57837;52.064;113.478;2022-10-17T01:54:47;94928.06;;;4.29
70415;BMP280;57837;52.064;113.478;2022-10-17T01:57:55;94912.88;;;4.75
70415;BMP280;57837;52.064;113.478;2022-10-17T02:01:04;94910.44;;;5.07
70415;BMP280;57837;52.064;113.478;2022-10-17T02:04:09;94913.84;;;5.72
70415;BMP280;57837;52.064;113.478;2022-10-17T02:07:17;94915.66;;;5.85
70415;BMP280;57837;52.064;113.478;2022-10-17T02:20:15;94904.44;;;6.66
70415;BMP280;57837;52.064;113.478;2022-10-17T02:23:29;94889.16;;;7.07
70415;BMP280;57837;52.064;113.478;2022-10-17T02:30:28;94889.25;;;6.86
70415;BMP280;57837;52.064;113.478;2022-10-17T02:33:58;94886.75;;;6.75
70415;BMP280;57837;52.064;113.478;2022-10-17T02:37:05;94886.75;;;6.82
70415;BMP280;57837;52.064;113.478;2022-10-17T02:40:11;94877.47;;;6.92
70415;BMP280;57837;52.064;113.478;2022-10-17T02:43:17;94874.69;;;7.24
70415;BMP280;57837;52.064;113.478;2022-10-17T02:46:23;94876.59;;;7.13
70415;BMP280;57837;52.064;113.478;2022-10-17T02:49:34;94877.47;;;6.89
70415;BMP280;57837;52.064;113.478;2022-10-17T02:52:51;94866.16;;;6.72
70415;BMP280;57837;52.064;113.478;2022-10-17T02:56:00;94863.88;;;6.92
70415;BMP280;57837;52.064;113.478;2022-10-17T02:59:08;94857.19;;;7.01
70415;BMP280;57837;52.064;113.478;2022-10-17T03:02:14;94854.75;;;6.80
70415;BMP280;57837;52.064;113.478;2022-10-17T03:05:21;94847.41;;;6.78
70415;BMP280;57837;52.064;113.478;2022-10-17T03:08:25;94849.25;;;6.81
70415;BMP280;57837;52.064;113.478;2022-10-17T03:11:30;94845.59;;;6.72
70415;BMP280;57837;52.064;113.478;2022-10-17T03:14:34;94836.78;;;6.69
70415;BMP280;57837;52.064;113.478;2022-10-17T03:17:38;94832.13;;;6.47
70415;BMP280;57837;52.064;113.478;2022-10-17T03:20:43;94821.94;;;6.22
70415;BMP280;57837;52.064;113.478;2022-10-17T03:23:47;94823.78;;;6.21
70415;BMP280;57837;52.064;113.478;2022-10-17T03:26:52;94825.59;;;6.24
70415;BMP280;57837;52.064;113.478;2022-10-17T03:29:57;94811.53;;;6.50
70415;BMP280;57837;52.064;113.478;2022-10-17T03:33:01;94808.09;;;6.74
70415;BMP280;57837;52.064;113.478;2022-10-17T03:36:11;94811.06;;;6.69
70415;BMP280;57837;52.064;113.478;2022-10-17T03:39:15;94802.63;;;6.65
70415;BMP280;57837;52.064;113.478;2022-10-17T03:42:19;94799.88;;;6.90
70415;BMP280;57837;52.064;113.478;2022-10-17T03:45:23;94792.78;;;7.08
70415;BMP280;57837;52.064;113.478;2022-10-17T03:48:29;94793.19;;;7.07
70415;BMP280;57837;52.064;113.478;2022-10-17T03:51:33;94787.25;;;7.10
70415;BMP280;57837;52.064;113.478;2022-10-17T03:54:41;94791.34;;;7.07
70415;BMP280;57837;52.064;113.478;2022-10-17T03:57:45;94788.69;;;7.14
70415;BMP280;57837;52.064;113.478;2022-10-17T04:00:51;94787.22;;;7.13
70415;BMP280;57837;52.064;113.478;2022-10-17T04:03:55;94783.28;;;7.02
70415;BMP280;57837;52.064;113.478;2022-10-17T04:07:03;94771.88;;;6.99
70415;BMP280;57837;52.064;113.478;2022-10-17T04:10:10;94767.94;;;6.84
70415;BMP280;57837;52.064;113.478;2022-10-17T04:13:14;94760.28;;;6.77
70415;BMP280;57837;52.064;113.478;2022-10-17T04:16:17;94763.22;;;6.82
70415;BMP280;57837;52.064;113.478;2022-10-17T04:19:30;94752.28;;;6.61
70415;BMP280;57837;52.064;113.478;2022-10-17T04:22:33;94748.34;;;6.45
70415;BMP280;57837;52.064;113.478;2022-10-17T04:25:37;94740.69;;;6.38
70415;BMP280;57837;52.064;113.478;2022-10-17T04:28:40;94732.25;;;6.31
70415;BMP280;57837;52.064;113.478;2022-10-17T04:31:43;94735.84;;;6.48
70415;BMP280;57837;52.064;113.478;2022-10-17T04:35:01;94725.38;;;6.76
70415;BMP280;57837;52.064;113.478;2022-10-17T04:38:06;94712.41;;;6.87
70415;BMP280;57837;52.064;113.478;2022-10-17T04:41:12;94712.03;;;6.84
70415;BMP280;57837;52.064;113.478;2022-10-17T04:44:15;94708.84;;;6.73
70415;BMP280;57837;52.064;113.478;2022-10-17T04:47:24;94708.94;;;6.59
70415;BMP280;57837;52.064;113.478;2022-10-17T04:50:29;94704.66;;;6.42
70415;BMP280;57837;52.064;113.478;2022-10-17T04:54:00;94697.31;;;6.40
70415;BMP280;57837;52.064;113.478;2022-10-17T04:57:04;94695.47;;;6.41
70415;BMP280;57837;52.064;113.478;2022-10-17T05:00:07;94678.88;;;6.53
70415;BMP280;57837;52.064;113.478;2022-10-17T05:03:39;94685.03;;;6.59
70415;BMP280;57837;52.064;113.478;2022-10-17T05:06:43;94679.88;;;6.66
70415;BMP280;57837;52.064;113.478;2022-10-17T05:09:56;94673.53;;;6.77
70415;BMP280;57837;52.064;113.478;2022-10-17T05:13:00;94675.09;;;6.68
70415;BMP280;57837;52.064;113.478;2022-10-17T05:16:06;94667.69;;;6.70
70415;BMP280;57837;52.064;113.478;2022-10-17T05:19:10;94662.13;;;6.82
70415;BMP280;57837;52.064;113.478;2022-10-17T05:22:20;94655.91;;;6.76
70415;BMP280;57837;52.064;113.478;2022-10-17T05:25:24;94651.59;;;6.62
70415;BMP280;57837;52.064;113.478;2022-10-17T05:28:27;94643.78;;;6.73
70415;BMP280;57837;52.064;113.478;2022-10-17T05:31:33;94646.44;;;6.66
70415;BMP280;57837;52.064;113.478;2022-10-17T05:34:39;94643.06;;;6.72
70415;BMP280;57837;52.064;113.478;2022-10-17T05:37:43;94647.06;;;6.77
70415;BMP280;57837;52.064;113.478;2022-10-17T05:40:46;94641.56;;;6.75
70415;BMP280;57837;52.064;113.478;2022-10-17T05:43:50;94623.91;;;6.77
70415;BMP280;57837;52.064;113.478;2022-10-17T05:46:58;94623.78;;;6.88
70415;BMP280;57837;52.064;113.478;2022-10-17T05:50:03;94623.03;;;6.91
70415;BMP280;57837;52.064;113.478;2022-10-17T05:53:18;94617.09;;;6.97
70415;BMP280;57837;52.064;113.478;2022-10-17T05:56:25;94618.56;;;6.98
70415;BMP280;57837;52.064;113.478;2022-10-17T05:59:29;94604.94;;;6.98
70415;BMP280;57837;52.064;113.478;2022-10-17T06:02:42;94612.66;;;6.98
70415;BMP280;57837;52.064;113.478;2022-10-17T06:05:49;94606.88;;;6.87
70415;BMP280;57837;52.064;113.478;2022-10-17T06:08:54;94597.06;;;6.81
70415;BMP280;57837;52.064;113.478;2022-10-17T06:12:05;94595.22;;;6.78
70415;BMP280;57837;52.064;113.478;2022-10-17T06:15:09;94592.56;;;6.86
70415;BMP280;57837;52.064;113.478;2022-10-17T06:18:14;94585.16;;;6.91
70415;BMP280;57837;52.064;113.478;2022-10-17T06:21:22;94581.44;;;6.96
70415;BMP280;57837;52.064;113.478;2022-10-17T06:24:30;94574.16;;;6.87
70415;BMP280;57837;52.064;113.478;2022-10-17T06:27:37;94577.81;;;6.90
70415;BMP280;57837;52.064;113.478;2022-10-17T06:30:41;94574.16;;;6.91
70415;BMP280;57837;52.064;113.478;2022-10-17T06:33:45;94563.53;;;6.85
70415;BMP280;57837;52.064;113.478;2022-10-17T06:36:49;94560.91;;;6.92
70415;BMP280;57837;52.064;113.478;2022-10-17T06:39:54;94561.28;;;6.91
70415;BMP280;57837;52.064;113.478;2022-10-17T06:42:59;94559.06;;;6.93
70415;BMP280;57837;52.064;113.478;2022-10-17T06:46:26;94550.53;;;6.99
70415;BMP280;57837;52.064;113.478;2022-10-17T06:49:37;94546.78;;;7.07
70415;BMP280;57837;52.064;113.478;2022-10-17T06:53:13;94546.81;;;7.04
70415;BMP280;57837;52.064;113.478;2022-10-17T06:56:23;94542.03;;;7.02
70415;BMP280;57837;52.064;113.478;2022-10-17T06:59:56;94531.13;;;6.91
70415;BMP280;57837;52.064;113.478;2022-10-17T07:03:08;94526.03;;;6.84
70415;BMP280;57837;52.064;113.478;2022-10-17T07:06:12;94530.44;;;6.83
70415;BMP280;57837;52.064;113.478;2022-10-17T07:09:17;94524.19;;;6.84
70415;BMP280;57837;52.064;113.478;2022-10-17T07:12:21;94516.69;;;6.97
70415;BMP280;57837;52.064;113.478;2022-10-17T07:15:26;94512.09;;;7.12
70415;BMP280;57837;52.064;113.478;2022-10-17T07:18:30;94507.06;;;7.05
70415;BMP280;57837;52.064;113.478;2022-10-17T07:21:33;94510.53;;;6.91
70415;BMP280;57837;52.064;113.478;2022-10-17T07:24:44;94501.13;;;6.81
70415;BMP280;57837;52.064;113.478;2022-10-17T07:27:53;94505.88;;;6.82
70415;BMP280;57837;52.064;113.478;2022-10-17T07:31:03;94498.44;;;6.88
70415;BMP280;57837;52.064;113.478;2022-10-17T07:34:07;94498.41;;;6.92
70415;BMP280;57837;52.064;113.478;2022-10-17T07:37:11;94491.81;;;6.87
70415;BMP280;57837;52.064;113.478;2022-10-17T07:40:20;94494.03;;;6.85
70415;BMP280;57837;52.064;113.478;2022-10-17T07:43:26;94484.09;;;6.87
70415;BMP280;57837;52.064;113.478;2022-10-17T07:46:32;94484.41;;;6.93
70415;BMP280;57837;52.064;113.478;2022-10-17T07:49:36;94474.84;;;6.93
70415;BMP280;57837;52.064;113.478;2022-10-17T07:52:44;94474.84;;;6.93
70415;BMP280;57837;52.064;113.478;2022-10-17T07:55:48;94469.75;;;6.90
70415;BMP280;57837;52.064;113.478;2022-10-17T07:58:54;94467.06;;;6.97
70415;BMP280;57837;52.064;113.478;2022-10-17T08:01:59;94460.88;;;6.94
70415;BMP280;57837;52.064;113.478;2022-10-17T08:05:03;94458.31;;;6.94
70415;BMP280;57837;52.064;113.478;2022-10-17T08:08:07;94462.44;;;7.15
70415;BMP280;57837;52.064;113.478;2022-10-17T08:11:13;94463.88;;;7.43
70415;BMP280;57837;52.064;113.478;2022-10-17T08:14:17;94450.56;;;7.21
70415;BMP280;57837;52.064;113.478;2022-10-17T08:17:20;94457.78;;;7.06
70415;BMP280;57837;52.064;113.478;2022-10-17T08:20:25;94453.88;;;6.95
70415;BMP280;57837;52.064;113.478;2022-10-17T08:23:28;94451.44;;;7.11
70415;BMP280;57837;52.064;113.478;2022-10-17T08:26:33;94453.16;;;6.94
70415;BMP280;57837;52.064;113.478;2022-10-17T08:29:40;94455.75;;;6.91
70415;BMP280;57837;52.064;113.478;2022-10-17T08:32:45;94448.53;;;6.82
70415;BMP280;57837;52.064;113.478;2022-10-17T08:35:48;94450.09;;;6.72
70415;BMP280;57837;52.064;113.478;2022-10-17T08:38:52;94442.75;;;7.01
70415;BMP280;57837;52.064;113.478;2022-10-17T08:45:31;94437.03;;;6.87
70415;BMP280;57837;52.064;113.478;2022-10-17T08:48:42;94429.56;;;6.96
70415;BMP280;57837;52.064;113.478;2022-10-17T08:51:56;94435.44;;;6.69
70415;BMP280;57837;52.064;113.478;2022-10-17T08:55:01;94433.44;;;6.54
70415;BMP280;57837;52.064;113.478;2022-10-17T08:58:13;94427.56;;;6.53
70415;BMP280;57837;52.064;113.478;2022-10-17T09:01:43;94427.41;;;6.64
70415;BMP280;57837;52.064;113.478;2022-10-17T09:18:59;94414.22;;;5.90
70415;BMP280;57837;52.064;113.478;2022-10-17T09:22:09;94412.84;;;5.79
70415;BMP280;57837;52.064;113.478;2022-10-17T09:25:17;94418.47;;;5.66
70415;BMP280;57837;52.064;113.478;2022-10-17T09:31:32;94416.22;;;5.24
70415;BMP280;57837;52.064;113.478;2022-10-17T09:34:37;94409.75;;;5.02
70415;BMP280;57837;52.064;113.478;2022-10-17T09:37:41;94413.91;;;4.67
70415;BMP280;57837;52.064;113.478;2022-10-17T09:40:54;94415.84;;;4.45
70415;BMP280;57837;52.064;113.478;2022-10-17T09:44:11;94411.88;;;4.16
70415;BMP280;57837;52.064;113.478;2022-10-17T09:50:31;94408.66;;;3.69
70415;BMP280;57837;52.064;113.478;2022-10-17T09:53:38;94410.47;;;3.47
70415;BMP280;57837;52.064;113.478;2022-10-17T09:57:02;94419.94;;;3.33
70415;BMP280;57837;52.064;113.478;2022-10-17T10:00:12;94414.06;;;3.14
70415;BMP280;57837;52.064;113.478;2022-10-17T10:03:24;94415.09;;;2.96
70415;BMP280;57837;52.064;113.478;2022-10-17T10:06:28;94419.44;;;2.81
70415;BMP280;57837;52.064;113.478;2022-10-17T10:09:33;94421.22;;;2.70
70415;BMP280;57837;52.064;113.478;2022-10-17T10:13:01;94420.47;;;2.62
70415;BMP280;57837;52.064;113.478;2022-10-17T10:16:35;94413.47;;;2.52
70415;BMP280;57837;52.064;113.478;2022-10-17T10:19:49;94415.28;;;2.52
70415;BMP280;57837;52.064;113.478;2022-10-17T10:23:14;94418.97;;;2.54
70415;BMP280;57837;52.064;113.478;2022-10-17T10:26:25;94416.06;;;2.59
70415;BMP280;57837;52.064;113.478;2022-10-17T10:29:34;94419.69;;;2.55
70415;BMP280;57837;52.064;113.478;2022-10-17T10:32:38;94412.72;;;2.48
70415;BMP280;57837;52.064;113.478;2022-10-17T10:35:41;94408.69;;;2.47
70415;BMP280;57837;52.064;113.478;2022-10-17T10:38:52;94410.53;;;2.50
70415;BMP280;57837;52.064;113.478;2022-10-17T10:41:57;94416.38;;;2.43
70415;BMP280;57837;52.064;113.478;2022-10-17T10:45:16;94414.44;;;2.30
70415;BMP280;57837;52.064;113.478;2022-10-17T10:48:55;94411.88;;;2.30
70415;BMP280;57837;52.064;113.478;2022-10-17T10:52:02;94407.50;;;2.27
70415;BMP280;57837;52.064;113.478;2022-10-17T10:55:35;94406.75;;;2.23
70415;BMP280;57837;52.064;113.478;2022-10-17T10:59:02;94413.69;;;2.22
70415;BMP280;57837;52.064;113.478;2022-10-17T11:02:35;94410.75;;;2.20
70415;BMP280;57837;52.064;113.478;2022-10-17T11:05:56;94406.34;;;2.14
70415;BMP280;57837;52.064;113.478;2022-10-17T11:09:08;94403.34;;;2.04
70415;BMP280;57837;52.064;113.478;2022-10-17T11:19:17;94397.78;;;1.92
70415;BMP280;57837;52.064;113.478;2022-10-17T11:22:23;94402.84;;;1.81
70415;BMP280;57837;52.064;113.478;2022-10-17T11:25:34;94398.44;;;1.78
70415;BMP280;57837;52.064;113.478;2022-10-17T11:28:38;94398.38;;;1.71
70415;BMP280;57837;52.064;113.478;2022-10-17T11:31:46;94391.47;;;1.75
70415;BMP280;57837;52.064;113.478;2022-10-17T11:34:55;94393.25;;;1.71
70415;BMP280;57837;52.064;113.478;2022-10-17T11:41:44;94386.91;;;1.51
70415;BMP280;57837;52.064;113.478;2022-10-17T11:44:54;94397.41;;;1.46
70415;BMP280;57837;52.064;113.478;2022-10-17T11:48:04;94398.13;;;1.43
70415;BMP280;57837;52.064;113.478;2022-10-17T11:51:10;94391.16;;;1.39
70415;BMP280;57837;52.064;113.478;2022-10-17T11:54:41;94389.72;;;1.42
70415;BMP280;57837;52.064;113.478;2022-10-17T12:01:56;94387.38;;;1.23
70415;BMP280;57837;52.064;113.478;2022-10-17T12:08:12;94398.63;;;1.18
70415;BMP280;57837;52.064;113.478;2022-10-17T12:14:46;94389.69;;;0.98
70415;BMP280;57837;52.064;113.478;2022-10-17T12:17:59;94384.50;;;0.91
70415;BMP280;57837;52.064;113.478;2022-10-17T12:21:06;94385.50;;;0.83
70415;BMP280;57837;52.064;113.478;2022-10-17T12:27:45;94380.28;;;0.72
70415;BMP280;57837;52.064;113.478;2022-10-17T12:31:01;94383.19;;;0.71
70415;BMP280;57837;52.064;113.478;2022-10-17T12:34:15;94378.09;;;0.71
70415;BMP280;57837;52.064;113.478;2022-10-17T12:40:47;94377.22;;;0.59
70415;BMP280;57837;52.064;113.478;2022-10-17T12:43:53;94386.25;;;0.53
70415;BMP280;57837;52.064;113.478;2022-10-17T12:54:00;94379.53;;;0.42
70415;BMP280;57837;52.064;113.478;2022-10-17T12:57:34;94380.19;;;0.35
70415;BMP280;57837;52.064;113.478;2022-10-17T13:00:46;94379.75;;;0.29
70415;BMP280;57837;52.064;113.478;2022-10-17T13:04:11;94381.22;;;0.30
70415;BMP280;57837;52.064;113.478;2022-10-17T13:07:21;94374.78;;;0.40
70415;BMP280;57837;52.064;113.478;2022-10-17T13:10:31;94369.06;;;0.47
70415;BMP280;57837;52.064;113.478;2022-10-17T13:13:49;94366.19;;;0.48
70415;BMP280;57837;52.064;113.478;2022-10-17T13:17:00;94362.41;;;0.39
70415;BMP280;57837;52.064;113.478;2022-10-17T13:20:20;94357.91;;;0.25
70415;BMP280;57837;52.064;113.478;2022-10-17T13:23:34;94357.84;;;0.21
70415;BMP280;57837;52.064;113.478;2022-10-17T13:26:44;94362.56;;;0.19
70415;BMP280;57837;52.064;113.478;2022-10-17T13:29:48;94352.16;;;0.05
70415;BMP280;57837;52.064;113.478;2022-10-17T13:32:51;94354.97;;;-0.04
70415;BMP280;57837;52.064;113.478;2022-10-17T13:35:55;94353.78;;;-0.10
70415;BMP280;57837;52.064;113.478;2022-10-17T13:39:08;94348.59;;;-0.17
70415;BMP280;57837;52.064;113.478;2022-10-17T13:42:23;94344.28;;;-0.13
70415;BMP280;57837;52.064;113.478;2022-10-17T13:45:30;94350.47;;;-0.14
70415;BMP280;57837;52.064;113.478;2022-10-17T13:48:36;94355.94;;;-0.12
70415;BMP280;57837;52.064;113.478;2022-10-17T13:51:45;94356.72;;;-0.08
70415;BMP280;57837;52.064;113.478;2022-10-17T13:54:51;94356.34;;;-0.10
70415;BMP280;57837;52.064;113.478;2022-10-17T13:57:55;94353.06;;;-0.10
70415;BMP280;57837;52.064;113.478;2022-10-17T14:00:58;94350.84;;;-0.12
70415;BMP280;57837;52.064;113.478;2022-10-17T14:04:03;94350.50;;;-0.10
70415;BMP280;57837;52.064;113.478;2022-10-17T14:07:25;94347.63;;;-0.09
70415;BMP280;57837;52.064;113.478;2022-10-17T14:10:41;94348.31;;;-0.12
70415;BMP280;57837;52.064;113.478;2022-10-17T14:13:48;94353.41;;;-0.12
70415;BMP280;57837;52.064;113.478;2022-10-17T14:16:53;94351.47;;;-0.18
70415;BMP280;57837;52.064;113.478;2022-10-17T14:20:02;94354.34;;;-0.20
70415;BMP280;57837;52.064;113.478;2022-10-17T14:29:59;94350.47;;;-0.37
70415;BMP280;57837;52.064;113.478;2022-10-17T14:33:07;94345.53;;;-0.49
70415;BMP280;57837;52.064;113.478;2022-10-17T14:36:15;94345.78;;;-0.57
70415;BMP280;57837;52.064;113.478;2022-10-17T14:39:22;94346.38;;;-0.64
70415;BMP280;57837;52.064;113.478;2022-10-17T14:42:26;94344.75;;;-0.76
70415;BMP280;57837;52.064;113.478;2022-10-17T14:45:35;94344.25;;;-0.85
70415;BMP280;57837;52.064;113.478;2022-10-17T14:48:41;94340.56;;;-0.87
70415;BMP280;57837;52.064;113.478;2022-10-17T14:55:23;94335.22;;;-0.82
70415;BMP280;57837;52.064;113.478;2022-10-17T14:58:28;94342.03;;;-0.86
70415;BMP280;57837;52.064;113.478;2022-10-17T15:01:35;94336.81;;;-0.93
70415;BMP280;57837;52.064;113.478;2022-10-17T15:04:39;94344.66;;;-1.02
70415;BMP280;57837;52.064;113.478;2022-10-17T15:07:43;94337.44;;;-1.19
70415;BMP280;57837;52.064;113.478;2022-10-17T15:10:47;94337.84;;;-1.17
70415;BMP280;57837;52.064;113.478;2022-10-17T15:13:51;94338.25;;;-1.15
70415;BMP280;57837;52.064;113.478;2022-10-17T15:16:54;94339.72;;;-1.14
70415;BMP280;57837;52.064;113.478;2022-10-17T15:19:58;94344.47;;;-1.13
70415;BMP280;57837;52.064;113.478;2022-10-17T15:23:02;94335.06;;;-1.12
70415;BMP280;57837;52.064;113.478;2022-10-17T15:26:23;94336.88;;;-1.09
70415;BMP280;57837;52.064;113.478;2022-10-17T15:29:27;94338.66;;;-1.13
70415;BMP280;57837;52.064;113.478;2022-10-17T15:32:31;94338.94;;;-1.18
70415;BMP280;57837;52.064;113.478;2022-10-17T15:35:35;94344.53;;;-1.28
70415;BMP280;57837;52.064;113.478;2022-10-17T15:38:38;94338.31;;;-1.31
70415;BMP280;57837;52.064;113.478;2022-10-17T15:41:42;94348.47;;;-1.31
70415;BMP280;57837;52.064;113.478;2022-10-17T15:44:46;94340.03;;;-1.35
70415;BMP280;57837;52.064;113.478;2022-10-17T15:47:54;94343.91;;;-1.41
70415;BMP280;57837;52.064;113.478;2022-10-17T15:50:58;94347.44;;;-1.46
70415;BMP280;57837;52.064;113.478;2022-10-17T15:54:02;94338.88;;;-1.57
70415;BMP280;57837;52.064;113.478;2022-10-17T15:57:21;94342.38;;;-1.65
70415;BMP280;57837;52.064;113.478;2022-10-17T16:00:25;94336.66;;;-1.78
70415;BMP280;57837;52.064;113.478;2022-10-17T16:03:30;94330.19;;;-1.75
70415;BMP280;57837;52.064;113.478;2022-10-17T16:06:34;94332.06;;;-1.72
70415;BMP280;57837;52.064;113.478;2022-10-17T16:09:38;94328.88;;;-1.69
70415;BMP280;57837;52.064;113.478;2022-10-17T16:12:42;94337.28;;;-1.65
70415;BMP280;57837;52.064;113.478;2022-10-17T16:15:45;94320.44;;;-1.73
70415;BMP280;57837;52.064;113.478;2022-10-17T16:18:48;94322.50;;;-1.79
70415;BMP280;57837;52.064;113.478;2022-10-17T16:21:52;94322.56;;;-1.75
70415;BMP280;57837;52.064;113.478;2022-10-17T16:24:59;94324.06;;;-1.74
70415;BMP280;57837;52.064;113.478;2022-10-17T16:28:09;94328.31;;;-1.78
70415;BMP280;57837;52.064;113.478;2022-10-17T16:31:34;94327.91;;;-1.80
70415;BMP280;57837;52.064;113.478;2022-10-17T16:34:38;94336.06;;;-1.87
70415;BMP280;57837;52.064;113.478;2022-10-17T16:37:42;94322.13;;;-1.96
70415;BMP280;57837;52.064;113.478;2022-10-17T16:40:45;94332.44;;;-2.05
70415;BMP280;57837;52.064;113.478;2022-10-17T16:43:49;94329.41;;;-2.11
70415;BMP280;57837;52.064;113.478;2022-10-17T16:46:52;94325.00;;;-2.14
70415;BMP280;57837;52.064;113.478;2022-10-17T16:49:56;94320.25;;;-2.15
70415;BMP280;57837;52.064;113.478;2022-10-17T16:53:01;94324.59;;;-2.16
70415;BMP280;57837;52.064;113.478;2022-10-17T16:56:06;94313.38;;;-2.15
70415;BMP280;57837;52.064;113.478;2022-10-17T16:59:10;94322.72;;;-2.19
70415;BMP280;57837;52.064;113.478;2022-10-17T17:02:14;94322.78;;;-2.31
70415;BMP280;57837;52.064;113.478;2022-10-17T17:05:22;94311.75;;;-2.39
70415;BMP280;57837;52.064;113.478;2022-10-17T17:08:25;94310.63;;;-2.41
70415;BMP280;57837;52.064;113.478;2022-10-17T17:11:29;94303.75;;;-2.41
70415;BMP280;57837;52.064;113.478;2022-10-17T17:14:34;94303.34;;;-2.43
70415;BMP280;57837;52.064;113.478;2022-10-17T17:17:37;94303.66;;;-2.44
70415;BMP280;57837;52.064;113.478;2022-10-17T17:20:59;94321.72;;;-2.46
70415;BMP280;57837;52.064;113.478;2022-10-17T17:24:03;94315.47;;;-2.52
70415;BMP280;57837;52.064;113.478;2022-10-17T17:27:08;94312.66;;;-2.78
70415;BMP280;57837;52.064;113.478;2022-10-17T17:30:15;94308.16;;;-2.97
70415;BMP280;57837;52.064;113.478;2022-10-17T17:33:22;94313.13;;;-3.16
70415;BMP280;57837;52.064;113.478;2022-10-17T17:36:28;94308.91;;;-3.24
70415;BMP280;57837;52.064;113.478;2022-10-17T17:39:33;94309.06;;;-3.33
70415;BMP280;57837;52.064;113.478;2022-10-17T17:42:36;94304.44;;;-3.31
70415;BMP280;57837;52.064;113.478;2022-10-17T17:45:40;94300.50;;;-3.28
70415;BMP280;57837;52.064;113.478;2022-10-17T17:48:45;94305.22;;;-3.27
70415;BMP280;57837;52.064;113.478;2022-10-17T17:51:49;94296.66;;;-3.38
70415;BMP280;57837;52.064;113.478;2022-10-17T17:54:52;94290.84;;;-3.51
70415;BMP280;57837;52.064;113.478;2022-10-17T17:57:55;94290.13;;;-3.51
70415;BMP280;57837;52.064;113.478;2022-10-17T18:01:00;94285.06;;;-3.51
70415;BMP280;57837;52.064;113.478;2022-10-17T18:04:05;94291.50;;;-3.42
70415;BMP280;57837;52.064;113.478;2022-10-17T18:07:10;94287.78;;;-3.32
70415;BMP280;57837;52.064;113.478;2022-10-17T18:10:14;94281.72;;;-3.27
70415;BMP280;57837;52.064;113.478;2022-10-17T18:13:19;94284.81;;;-3.34
70415;BMP280;57837;52.064;113.478;2022-10-17T18:16:24;94287.03;;;-3.33
70415;BMP280;57837;52.064;113.478;2022-10-17T18:19:27;94281.47;;;-3.50
70415;BMP280;57837;52.064;113.478;2022-10-17T18:22:30;94279.88;;;-3.71
70415;BMP280;57837;52.064;113.478;2022-10-17T18:25:34;94284.28;;;-3.80
70415;BMP280;57837;52.064;113.478;2022-10-17T18:28:39;94282.16;;;-3.78
70415;BMP280;57837;52.064;113.478;2022-10-17T18:31:43;94274.75;;;-3.86
70415;BMP280;57837;52.064;113.478;2022-10-17T18:34:46;94271.69;;;-3.92
70415;BMP280;57837;52.064;113.478;2022-10-17T18:37:48;94269.53;;;-3.78
70415;BMP280;57837;52.064;113.478;2022-10-17T18:41:01;94270.59;;;-3.67
70415;BMP280;57837;52.064;113.478;2022-10-17T18:44:05;94270.91;;;-3.80
70415;BMP280;57837;52.064;113.478;2022-10-17T18:47:08;94258.94;;;-3.96
70415;BMP280;57837;52.064;113.478;2022-10-17T18:50:13;94261.25;;;-4.03
70415;BMP280;57837;52.064;113.478;2022-10-17T18:53:17;94251.34;;;-3.96
70415;BMP280;57837;52.064;113.478;2022-10-17T18:56:21;94256.41;;;-3.83
70415;BMP280;57837;52.064;113.478;2022-10-17T18:59:25;94265.31;;;-3.74
70415;BMP280;57837;52.064;113.478;2022-10-17T19:02:29;94249.53;;;-3.71
70415;BMP280;57837;52.064;113.478;2022-10-17T19:05:39;94251.72;;;-3.69
70415;BMP280;57837;52.064;113.478;2022-10-17T19:08:44;94244.47;;;-3.71
70415;BMP280;57837;52.064;113.478;2022-10-17T19:11:47;94249.84;;;-3.72
70415;BMP280;57837;52.064;113.478;2022-10-17T19:14:50;94248.25;;;-3.77
70415;BMP280;57837;52.064;113.478;2022-10-17T19:17:54;94250.69;;;-3.80
70415;BMP280;57837;52.064;113.478;2022-10-17T19:21:02;94242.78;;;-3.79
70415;BMP280;57837;52.064;113.478;2022-10-17T19:24:09;94237.63;;;-3.82